Time;durP1;ratioP1;P1;durP2;ratioP2;P2;SDS_P1;SDS_P2;PMS_P1;PMS_P2;Temp;Humidity;BMP_temperature;BMP_pressure;BME280_temperature;BME280_humidity;BME280_pressure;Samples;Min_cycle;Max_cycle;Signal;HPM_P1;HPM_P2
2021/07/14 00:00:11;;;;;;;;;;;18.10;99.90;;;;;;5055121;28;19897;-79
2021/07/14 00:02:36;;;;;;;;;;;18.10;99.90;;;;;;5056028;28;19897;-80
2021/07/14 00:05:09;;;;;;;;;;;18.10;99.90;;;;;;5056160;28;19920;-80
2021/07/14 00:07:35;;;;;;;;;;;18.10;99.90;;;;;;5056133;28;20004;-77
2021/07/14 00:10:01;;;;;;;;;;;18.10;99.90;;;;;;5070224;28;19905;-77
2021/07/14 00:12:30;;;;;;;;;;;18.00;99.90;;;;;;5055802;28;19904;-76
2021/07/14 00:17:01;;;;;;;;;;;18.00;99.90;;;;;;5055542;28;19965;-80
2021/07/14 00:23:02;;;;;;;;;;;18.00;99.90;;;;;;5060503;28;19904;-78
2021/07/14 00:25:28;;;;;;;;;;;18.00;99.90;;;;;;5059916;28;19921;-77
2021/07/14 00:27:53;;;;;;;;;;;18.00;99.90;;;;;;5059485;28;19923;-76
2021/07/14 00:30:26;;;;;;;;;;;18.00;99.90;;;;;;5059248;28;19969;-76
2021/07/14 00:32:52;;;;;;;;;;;18.00;99.90;;;;;;5046364;28;20313;-79
2021/07/14 00:35:18;;;;;;;;;;;18.00;99.90;;;;;;5040714;28;19908;-77
2021/07/14 00:37:43;;;;;;;;;;;18.00;99.90;;;;;;5038230;28;19909;-77
2021/07/14 00:40:10;;;;;;;;;;;18.00;99.90;;;;;;5040455;28;19916;-77
2021/07/14 00:42:35;;;;;;;;;;;18.10;99.90;;;;;;5038538;28;19948;-78
2021/07/14 00:45:01;;;;;;;;;;;18.10;99.90;;;;;;5038197;28;19919;-77
2021/07/14 00:47:29;;;;;;;;;;;18.10;99.90;;;;;;5039211;28;19909;-78
2021/07/14 00:49:55;;;;;;;;;;;18.10;99.90;;;;;;5038105;28;19909;-77
2021/07/14 00:52:20;;;;;;;;;;;18.00;99.90;;;;;;5036773;28;19916;-81
2021/07/14 00:54:46;;;;;;;;;;;18.00;99.90;;;;;;5037061;28;20297;-80
2021/07/14 00:57:15;;;;;;;;;;;18.00;99.90;;;;;;5035833;28;19916;-82
2021/07/14 00:59:41;;;;;;;;;;;18.00;99.90;;;;;;5036644;28;19909;-78
2021/07/14 01:02:06;;;;;;;;;;;18.00;99.90;;;;;;5035892;28;19916;-80
2021/07/14 01:04:34;;;;;;;;;;;18.10;99.90;;;;;;5033733;28;19917;-78
2021/07/14 01:07:06;;;;;;;;;;;18.00;99.90;;;;;;5032175;28;19917;-82
2021/07/14 01:09:38;;;;;;;;;;;18.10;99.90;;;;;;5032157;28;19913;-84
2021/07/14 01:12:09;;;;;;;;;;;18.00;99.90;;;;;;5034327;28;19995;-78
2021/07/14 01:14:41;;;;;;;;;;;18.00;99.90;;;;;;5035322;28;19916;-78
2021/07/14 01:17:09;;;;;;;;;;;18.00;99.90;;;;;;5033779;28;20345;-78
2021/07/14 01:19:40;;;;;;;;;;;17.90;99.90;;;;;;5035030;28;19909;-78
2021/07/14 01:22:19;;;;;;;;;;;18.00;99.90;;;;;;5033280;28;19956;-79
2021/07/14 01:24:50;;;;;;;;;;;18.00;99.90;;;;;;5034608;28;19948;-78
2021/07/14 01:27:17;;;;;;;;;;;18.00;99.90;;;;;;5033439;28;19923;-78
2021/07/14 01:29:51;;;;;;;;;;;18.00;99.90;;;;;;5035480;28;20341;-79
2021/07/14 01:32:17;;;;;;;;;;;18.10;99.90;;;;;;5038200;28;20300;-79
2021/07/14 01:34:45;;;;;;;;;;;18.10;99.90;;;;;;5042934;28;20001;-79
2021/07/14 01:37:12;;;;;;;;;;;18.20;99.90;;;;;;5035138;28;19909;-80
2021/07/14 01:39:38;;;;;;;;;;;18.20;99.90;;;;;;5034928;28;19916;-79
2021/07/14 01:42:05;;;;;;;;;;;18.20;99.90;;;;;;5045934;28;20285;-78
2021/07/14 01:44:30;;;;;;;;;;;18.20;99.90;;;;;;5040218;28;19916;-76
2021/07/14 01:46:58;;;;;;;;;;;18.20;99.90;;;;;;5035149;28;20569;-78
2021/07/14 01:49:28;;;;;;;;;;;18.10;99.90;;;;;;5034705;28;19909;-77
2021/07/14 01:51:57;;;;;;;;;;;18.20;99.90;;;;;;5032609;28;20419;-78
2021/07/14 01:54:23;;;;;;;;;;;18.20;99.90;;;;;;5032195;28;20000;-77
2021/07/14 01:56:49;;;;;;;;;;;18.10;99.90;;;;;;5033953;28;20055;-77
2021/07/14 01:59:16;;;;;;;;;;;18.10;99.90;;;;;;5033822;28;19916;-77
2021/07/14 02:01:43;;;;;;;;;;;18.10;99.90;;;;;;5034141;28;19916;-77
2021/07/14 02:06:56;;;;;;;;;;;18.10;99.90;;;;;;5034319;28;20403;-79
2021/07/14 02:09:21;;;;;;;;;;;18.10;99.90;;;;;;5033882;28;19920;-78
2021/07/14 02:11:49;;;;;;;;;;;18.20;99.90;;;;;;5033704;28;19917;-79
2021/07/14 02:14:16;;;;;;;;;;;18.10;99.90;;;;;;5030111;28;20255;-77
2021/07/14 02:16:43;;;;;;;;;;;18.20;99.90;;;;;;5032715;28;20354;-82
2021/07/14 02:19:12;;;;;;;;;;;18.10;99.90;;;;;;5033871;28;19909;-79
2021/07/14 02:21:37;;;;;;;;;;;18.10;99.90;;;;;;5035629;28;19909;-81
2021/07/14 02:24:03;;;;;;;;;;;18.10;99.90;;;;;;5032214;28;20003;-79
2021/07/14 02:26:29;;;;;;;;;;;18.10;99.90;;;;;;5041098;28;20004;-81
2021/07/14 02:28:55;;;;;;;;;;;18.10;99.90;;;;;;5041084;28;19928;-81
2021/07/14 02:31:20;;;;;;;;;;;18.10;99.90;;;;;;5041067;28;20381;-78
2021/07/14 02:33:46;;;;;;;;;;;18.10;99.90;;;;;;5047944;28;19908;-80
2021/07/14 02:36:14;;;;;;;;;;;18.10;99.90;;;;;;5041225;28;19913;-83
2021/07/14 02:38:41;;;;;;;;;;;18.10;99.90;;;;;;5036481;28;20005;-80
2021/07/14 02:41:17;;;;;;;;;;;18.10;99.90;;;;;;5036129;28;19947;-80
2021/07/14 02:43:49;;;;;;;;;;;18.10;99.90;;;;;;5039349;28;20424;-76
2021/07/14 02:46:23;;;;;;;;;;;18.00;99.90;;;;;;5044936;28;19920;-81
2021/07/14 02:48:51;;;;;;;;;;;18.10;99.90;;;;;;5047391;28;19916;-75
2021/07/14 02:51:16;;;;;;;;;;;18.10;99.90;;;;;;5034143;28;19955;-79
2021/07/14 02:53:45;;;;;;;;;;;18.10;99.90;;;;;;5033269;28;19909;-80
2021/07/14 02:56:18;;;;;;;;;;;18.00;99.90;;;;;;5033389;28;19967;-79
2021/07/14 02:58:44;;;;;;;;;;;18.00;99.90;;;;;;5037877;28;19913;-77
2021/07/14 03:01:12;;;;;;;;;;;18.10;99.90;;;;;;5045868;28;19917;-80
2021/07/14 03:03:37;;;;;;;;;;;18.10;99.90;;;;;;5034551;28;19992;-79
2021/07/14 03:06:03;;;;;;;;;;;18.10;99.90;;;;;;5044572;28;19999;-78
2021/07/14 03:08:29;;;;;;;;;;;18.20;99.90;;;;;;5041116;28;19917;-81
2021/07/14 03:10:55;;;;;;;;;;;18.10;99.90;;;;;;5046413;28;19909;-78
2021/07/14 03:13:23;;;;;;;;;;;18.20;99.90;;;;;;5044705;28;19919;-79
2021/07/14 03:15:50;;;;;;;;;;;18.20;99.90;;;;;;5033998;28;19916;-89
2021/07/14 03:18:17;;;;;;;;;;;18.10;99.90;;;;;;5039465;28;20347;-81
2021/07/14 03:20:44;;;;;;;;;;;18.10;99.90;;;;;;5044846;28;19917;-81
2021/07/14 03:23:10;;;;;;;;;;;18.10;99.90;;;;;;5043370;28;19934;-80
2021/07/14 03:25:35;;;;;;;;;;;18.20;99.90;;;;;;5036561;28;19921;-78
2021/07/14 03:28:01;;;;;;;;;;;18.10;99.90;;;;;;5037028;28;20022;-78
2021/07/14 03:30:27;;;;;;;;;;;18.10;99.90;;;;;;5039818;28;19936;-79
2021/07/14 03:32:53;;;;;;;;;;;18.10;99.90;;;;;;5043521;28;19979;-79
2021/07/14 03:35:19;;;;;;;;;;;18.00;99.90;;;;;;5044974;28;19916;-80
2021/07/14 03:37:45;;;;;;;;;;;18.00;99.90;;;;;;5040126;28;19908;-81
2021/07/14 03:40:12;;;;;;;;;;;18.00;99.90;;;;;;5048546;28;19916;-80
2021/07/14 03:42:39;;;;;;;;;;;18.00;99.90;;;;;;5034770;28;19909;-86
2021/07/14 03:45:06;;;;;;;;;;;18.00;99.90;;;;;;5037539;28;19917;-81
2021/07/14 03:47:32;;;;;;;;;;;18.00;99.90;;;;;;5040159;28;19917;-79
2021/07/14 03:49:58;;;;;;;;;;;18.00;99.90;;;;;;5033608;28;19909;-82
2021/07/14 03:52:23;;;;;;;;;;;18.00;99.90;;;;;;5038430;28;20269;-79
2021/07/14 03:54:49;;;;;;;;;;;18.00;99.90;;;;;;5047490;28;19908;-78
2021/07/14 03:57:16;;;;;;;;;;;18.00;99.90;;;;;;5045847;28;19909;-77
2021/07/14 03:59:41;;;;;;;;;;;18.00;99.90;;;;;;5044285;28;20007;-77
2021/07/14 04:02:07;;;;;;;;;;;18.00;99.90;;;;;;5038062;28;20360;-76
2021/07/14 04:04:33;;;;;;;;;;;18.10;99.90;;;;;;5035685;28;19909;-77
2021/07/14 04:07:02;;;;;;;;;;;18.00;99.90;;;;;;5034317;28;20000;-77
2021/07/14 04:09:28;;;;;;;;;;;18.00;99.90;;;;;;5031608;28;20316;-76
2021/07/14 04:11:59;;;;;;;;;;;17.90;99.90;;;;;;5035762;28;19909;-77
2021/07/14 04:14:24;;;;;;;;;;;18.00;99.90;;;;;;5035809;28;19951;-76
2021/07/14 04:16:51;;;;;;;;;;;18.00;99.90;;;;;;5045330;28;19963;-78
2021/07/14 04:19:16;;;;;;;;;;;18.00;99.90;;;;;;5039767;28;19962;-77
2021/07/14 04:21:42;;;;;;;;;;;18.00;99.90;;;;;;5044536;28;19908;-76
2021/07/14 04:24:07;;;;;;;;;;;18.00;99.90;;;;;;5038362;28;19909;-77
2021/07/14 04:26:33;;;;;;;;;;;18.10;99.90;;;;;;5040804;28;20039;-76
2021/07/14 04:28:59;;;;;;;;;;;18.10;99.90;;;;;;5047781;28;20265;-76
2021/07/14 04:31:24;;;;;;;;;;;18.10;99.90;;;;;;5038426;28;19920;-76
2021/07/14 04:33:50;;;;;;;;;;;18.20;99.90;;;;;;5039285;28;19909;-77
2021/07/14 04:36:15;;;;;;;;;;;18.20;99.90;;;;;;5040223;28;19908;-78
2021/07/14 04:38:41;;;;;;;;;;;18.20;99.90;;;;;;5037150;28;19955;-76
2021/07/14 04:41:07;;;;;;;;;;;18.20;99.90;;;;;;5036574;28;19909;-77
2021/07/14 04:43:32;;;;;;;;;;;18.10;99.90;;;;;;5037520;28;20381;-77
2021/07/14 04:45:58;;;;;;;;;;;18.10;99.90;;;;;;5043142;28;19920;-77
2021/07/14 04:48:24;;;;;;;;;;;18.10;99.90;;;;;;5043680;28;19912;-77
2021/07/14 04:50:50;;;;;;;;;;;18.10;99.90;;;;;;5049452;28;19908;-77
2021/07/14 04:53:15;;;;;;;;;;;18.10;99.90;;;;;;5043038;28;20254;-77
2021/07/14 04:56:00;;;;;;;;;;;18.20;99.90;;;;;;5053783;28;19917;-76
2021/07/14 04:58:26;;;;;;;;;;;18.10;99.90;;;;;;5042537;28;21301;-77
2021/07/14 05:00:51;;;;;;;;;;;18.20;99.90;;;;;;5042610;28;19924;-76
2021/07/14 05:03:17;;;;;;;;;;;18.20;99.90;;;;;;5034988;28;19952;-76
2021/07/14 05:05:42;;;;;;;;;;;18.20;99.90;;;;;;5046950;28;19920;-76
2021/07/14 05:08:08;;;;;;;;;;;18.30;99.90;;;;;;5052232;28;19909;-76
2021/07/14 05:10:33;;;;;;;;;;;18.30;99.90;;;;;;5063892;28;19951;-76
2021/07/14 05:12:59;;;;;;;;;;;18.30;99.90;;;;;;5062801;28;19925;-76
2021/07/14 05:15:25;;;;;;;;;;;18.30;99.90;;;;;;5064873;28;19897;-77
2021/07/14 05:17:51;;;;;;;;;;;18.30;99.90;;;;;;5063274;28;19921;-76
2021/07/14 05:20:17;;;;;;;;;;;18.30;99.90;;;;;;5056348;28;19943;-76
2021/07/14 05:22:43;;;;;;;;;;;18.30;99.90;;;;;;5065504;28;19928;-76
2021/07/14 05:25:09;;;;;;;;;;;18.30;99.90;;;;;;5056556;28;19897;-77
2021/07/14 05:27:35;;;;;;;;;;;18.30;99.90;;;;;;5067325;28;19952;-76
2021/07/14 05:30:01;;;;;;;;;;;18.20;99.90;;;;;;5059746;28;19913;-76
2021/07/14 05:32:26;;;;;;;;;;;18.30;99.90;;;;;;5061831;28;19904;-75
2021/07/14 05:34:52;;;;;;;;;;;18.20;99.90;;;;;;5062822;28;19897;-76
2021/07/14 05:37:17;;;;;;;;;;;18.10;99.90;;;;;;5061488;28;19901;-75
2021/07/14 05:39:42;;;;;;;;;;;18.10;99.90;;;;;;5059967;28;19917;-76
2021/07/14 05:42:08;;;;;;;;;;;18.10;99.90;;;;;;5069163;28;19896;-75
2021/07/14 05:44:34;;;;;;;;;;;18.00;99.90;;;;;;5064469;28;19923;-75
2021/07/14 05:46:59;;;;;;;;;;;18.10;99.90;;;;;;5070123;28;19929;-76
2021/07/14 05:49:25;;;;;;;;;;;18.00;99.90;;;;;;5066591;28;19960;-76
2021/07/14 05:51:50;;;;;;;;;;;18.00;99.90;;;;;;5064662;28;19911;-75
2021/07/14 05:54:16;;;;;;;;;;;18.00;99.90;;;;;;5066721;28;19904;-77
2021/07/14 05:56:42;;;;;;;;;;;18.10;99.90;;;;;;5076620;28;19897;-76
2021/07/14 05:59:08;;;;;;;;;;;18.10;99.90;;;;;;5053609;28;20381;-76
2021/07/14 06:01:33;;;;;;;;;;;18.20;99.90;;;;;;5041369;28;19963;-77
2021/07/14 06:04:00;;;;;;;;;;;18.10;99.90;;;;;;5039900;28;19909;-76
2021/07/14 06:06:25;;;;;;;;;;;18.10;99.90;;;;;;5047577;28;19921;-76
2021/07/14 06:08:51;;;;;;;;;;;18.20;99.90;;;;;;5042527;28;19967;-76
2021/07/14 06:11:16;;;;;;;;;;;18.00;99.90;;;;;;5044434;28;19909;-77
2021/07/14 06:13:42;;;;;;;;;;;18.00;99.90;;;;;;5043079;28;19916;-77
2021/07/14 06:16:08;;;;;;;;;;;17.90;99.90;;;;;;5058024;28;19912;-77
2021/07/14 06:18:33;;;;;;;;;;;17.90;99.90;;;;;;5056504;28;19912;-77
2021/07/14 06:20:59;;;;;;;;;;;17.90;99.90;;;;;;5035641;28;19909;-77
2021/07/14 06:23:24;;;;;;;;;;;17.90;99.90;;;;;;5037497;28;19920;-77
2021/07/14 06:25:50;;;;;;;;;;;17.90;99.90;;;;;;5034551;28;20285;-77
2021/07/14 06:28:15;;;;;;;;;;;17.80;99.90;;;;;;5034062;28;19948;-78
2021/07/14 06:30:42;;;;;;;;;;;17.80;99.90;;;;;;5034687;28;20008;-76
2021/07/14 06:33:07;;;;;;;;;;;17.80;99.90;;;;;;5035330;28;19909;-77
2021/07/14 06:35:33;;;;;;;;;;;17.80;99.90;;;;;;5034879;28;20250;-78
2021/07/14 06:37:58;;;;;;;;;;;17.80;99.90;;;;;;5033883;28;19913;-77
2021/07/14 06:40:24;;;;;;;;;;;17.80;99.90;;;;;;5034498;28;19975;-78
2021/07/14 06:42:50;;;;;;;;;;;17.80;99.90;;;;;;5035121;28;19944;-77
2021/07/14 06:45:16;;;;;;;;;;;17.90;99.90;;;;;;5035330;28;19909;-78
2021/07/14 06:47:41;;;;;;;;;;;18.00;99.90;;;;;;5033115;28;19913;-77
2021/07/14 06:50:11;;;;;;;;;;;17.90;99.90;;;;;;5034502;28;20050;-77
2021/07/14 06:52:37;;;;;;;;;;;17.90;99.90;;;;;;5032975;28;20362;-76
2021/07/14 06:55:04;;;;;;;;;;;17.90;99.90;;;;;;5033045;28;19909;-77
2021/07/14 06:57:29;;;;;;;;;;;17.90;99.90;;;;;;5034631;28;20386;-77
2021/07/14 06:59:55;;;;;;;;;;;18.00;99.90;;;;;;5034501;28;20047;-77
2021/07/14 07:02:20;;;;;;;;;;;18.00;99.90;;;;;;5032255;28;20285;-77
2021/07/14 07:04:47;;;;;;;;;;;18.00;99.90;;;;;;5033616;28;20369;-77
2021/07/14 07:07:12;;;;;;;;;;;18.10;99.90;;;;;;5032704;28;19963;-77
2021/07/14 07:09:38;;;;;;;;;;;18.20;99.90;;;;;;5033664;28;19909;-77
2021/07/14 07:12:04;;;;;;;;;;;18.30;99.90;;;;;;5037305;28;19916;-77
2021/07/14 07:14:29;;;;;;;;;;;18.30;99.90;;;;;;5049310;28;19979;-77
2021/07/14 07:16:55;;;;;;;;;;;18.40;99.90;;;;;;5037443;28;20012;-77
2021/07/14 07:19:20;;;;;;;;;;;18.40;99.90;;;;;;5050101;28;19920;-77
2021/07/14 07:21:48;;;;;;;;;;;18.50;99.90;;;;;;5034008;28;20365;-75
2021/07/14 07:24:14;;;;;;;;;;;18.50;99.90;;;;;;5034582;28;19909;-77
2021/07/14 07:26:39;;;;;;;;;;;18.50;99.90;;;;;;5033605;28;20012;-77
2021/07/14 07:29:05;;;;;;;;;;;18.40;99.90;;;;;;5036757;28;19952;-80
2021/07/14 07:31:34;;;;;;;;;;;18.40;99.90;;;;;;5047942;28;19912;-76
2021/07/14 07:34:00;;;;;;;;;;;18.40;99.90;;;;;;5032510;28;19909;-78
2021/07/14 07:36:26;;;;;;;;;;;18.40;99.90;;;;;;5047563;28;19923;-78
2021/07/14 07:38:51;;;;;;;;;;;18.50;99.90;;;;;;5029601;28;19913;-80
2021/07/14 07:41:17;;;;;;;;;;;18.50;99.90;;;;;;5033716;28;19909;-78
2021/07/14 07:43:43;;;;;;;;;;;18.50;99.90;;;;;;5033612;28;19909;-81
2021/07/14 07:46:09;;;;;;;;;;;18.50;99.90;;;;;;5036162;28;19912;-81
2021/07/14 07:48:35;;;;;;;;;;;18.50;99.90;;;;;;5033947;28;19952;-80
2021/07/14 07:51:01;;;;;;;;;;;18.50;99.90;;;;;;5034086;28;19913;-79
2021/07/14 07:53:26;;;;;;;;;;;18.50;99.90;;;;;;5035918;28;19908;-77
2021/07/14 07:55:52;;;;;;;;;;;18.50;99.90;;;;;;5049039;28;19908;-78
2021/07/14 07:58:19;;;;;;;;;;;18.50;99.90;;;;;;5037583;28;19909;-78
2021/07/14 08:00:45;;;;;;;;;;;18.50;99.90;;;;;;5043249;28;19909;-83
2021/07/14 08:03:10;;;;;;;;;;;18.40;99.90;;;;;;5044424;28;19916;-80
2021/07/14 08:05:36;;;;;;;;;;;18.40;99.90;;;;;;5046766;28;19913;-79
2021/07/14 08:08:02;;;;;;;;;;;18.50;99.90;;;;;;5044632;28;20284;-81
2021/07/14 08:10:28;;;;;;;;;;;18.50;99.90;;;;;;5034460;28;19996;-82
2021/07/14 08:12:53;;;;;;;;;;;18.50;99.90;;;;;;5050275;28;20398;-76
2021/07/14 08:15:19;;;;;;;;;;;18.50;99.90;;;;;;5038418;28;19916;-80
2021/07/14 08:17:44;;;;;;;;;;;18.50;99.90;;;;;;5032945;28;20003;-79
2021/07/14 08:20:11;;;;;;;;;;;18.40;99.90;;;;;;5033814;28;19948;-80
2021/07/14 08:22:36;;;;;;;;;;;18.40;99.90;;;;;;5046765;28;20312;-80
2021/07/14 08:25:03;;;;;;;;;;;18.40;99.90;;;;;;5034029;28;19955;-81
2021/07/14 08:27:28;;;;;;;;;;;18.40;99.90;;;;;;5047797;28;19986;-84
2021/07/14 08:29:58;;;;;;;;;;;18.40;99.90;;;;;;5040866;28;20381;-81
2021/07/14 08:32:24;;;;;;;;;;;18.40;99.90;;;;;;5043495;28;19927;-79
2021/07/14 08:34:50;;;;;;;;;;;18.30;99.90;;;;;;5038710;28;19912;-81
2021/07/14 08:37:15;;;;;;;;;;;18.40;99.90;;;;;;5033731;28;19909;-81
2021/07/14 08:39:41;;;;;;;;;;;18.40;99.90;;;;;;5019502;28;19913;-79
2021/07/14 08:42:08;;;;;;;;;;;18.40;99.90;;;;;;5045732;28;19915;-81
2021/07/14 08:44:34;;;;;;;;;;;18.40;99.90;;;;;;5033841;28;20281;-84
2021/07/14 08:47:00;;;;;;;;;;;18.40;99.90;;;;;;5038212;28;19913;-80
2021/07/14 08:49:26;;;;;;;;;;;18.50;99.90;;;;;;5037050;28;20285;-81
2021/07/14 08:51:52;;;;;;;;;;;18.50;99.90;;;;;;5036366;28;19908;-83
2021/07/14 08:54:18;;;;;;;;;;;18.60;99.90;;;;;;5036158;28;19909;-78
2021/07/14 08:56:44;;;;;;;;;;;18.60;99.90;;;;;;5028335;28;19989;-83
2021/07/14 08:59:09;;;;;;;;;;;18.50;99.90;;;;;;5030839;28;19909;-80
2021/07/14 09:01:35;;;;;;;;;;;18.40;99.90;;;;;;5029983;28;19916;-78
2021/07/14 09:04:03;;;;;;;;;;;18.40;99.90;;;;;;5034095;28;19960;-83
2021/07/14 09:06:29;;;;;;;;;;;18.40;99.90;;;;;;5034066;28;19917;-82
2021/07/14 09:08:54;;;;;;;;;;;18.40;99.90;;;;;;5034314;28;19909;-82
2021/07/14 09:11:20;;;;;;;;;;;18.40;99.90;;;;;;5034307;28;19919;-73
2021/07/14 09:13:47;;;;;;;;;;;18.40;99.90;;;;;;5033868;28;19962;-81
2021/07/14 09:16:31;;;;;;;;;;;18.40;99.90;;;;;;5038556;28;20000;-81
2021/07/14 09:19:14;;;;;;;;;;;18.40;99.90;;;;;;5047759;28;19916;-80
2021/07/14 09:21:41;;;;;;;;;;;18.50;99.90;;;;;;5045279;28;19916;-82
2021/07/14 09:24:25;;;;;;;;;;;18.50;99.90;;;;;;5056084;28;20369;-79
2021/07/14 09:26:51;;;;;;;;;;;18.60;99.90;;;;;;5046688;28;19917;-82
2021/07/14 09:29:16;;;;;;;;;;;18.50;99.90;;;;;;5035418;28;19995;-83
2021/07/14 09:31:45;;;;;;;;;;;18.60;99.90;;;;;;5035032;28;19909;-76
2021/07/14 09:34:21;;;;;;;;;;;18.60;99.90;;;;;;5035103;28;19913;-79
2021/07/14 09:36:47;;;;;;;;;;;18.70;99.90;;;;;;5047508;28;19915;-79
2021/07/14 09:39:12;;;;;;;;;;;18.80;99.90;;;;;;5040508;28;19913;-78
2021/07/14 09:41:38;;;;;;;;;;;18.80;99.90;;;;;;5035468;28;19988;-79
2021/07/14 09:44:17;;;;;;;;;;;18.70;99.90;;;;;;5036258;28;20310;-80
2021/07/14 09:46:42;;;;;;;;;;;18.70;99.90;;;;;;5039500;28;19916;-79
2021/07/14 09:49:13;;;;;;;;;;;18.80;99.90;;;;;;5045031;28;19946;-80
2021/07/14 09:51:38;;;;;;;;;;;18.90;99.90;;;;;;5036857;28;20368;-79
2021/07/14 09:54:06;;;;;;;;;;;19.00;99.90;;;;;;5035012;28;19991;-79
2021/07/14 09:56:36;;;;;;;;;;;19.00;99.90;;;;;;5035087;28;19913;-79
2021/07/14 09:59:03;;;;;;;;;;;18.90;99.90;;;;;;5036644;28;19912;-79
2021/07/14 10:01:36;;;;;;;;;;;18.90;99.90;;;;;;5036831;28;19909;-79
2021/07/14 10:04:03;;;;;;;;;;;18.90;99.90;;;;;;5035947;28;19909;-79
2021/07/14 10:06:29;;;;;;;;;;;18.90;99.90;;;;;;5040762;28;19917;-79
2021/07/14 10:09:00;;;;;;;;;;;18.80;99.90;;;;;;5040311;28;19909;-78
2021/07/14 10:11:26;;;;;;;;;;;18.90;99.90;;;;;;5044371;28;19951;-79
2021/07/14 10:13:53;;;;;;;;;;;18.80;99.90;;;;;;5045337;28;19978;-78
2021/07/14 10:16:19;;;;;;;;;;;18.80;99.90;;;;;;5053133;28;19909;-78
2021/07/14 10:19:14;;;;;;;;;;;18.80;99.90;;;;;;5059564;28;19976;-78
2021/07/14 10:21:41;;;;;;;;;;;18.80;99.90;;;;;;5042665;28;19893;-78
2021/07/14 10:24:10;;;;;;;;;;;18.80;99.90;;;;;;5057131;28;20320;-78
2021/07/14 10:26:37;;;;;;;;;;;18.90;99.90;;;;;;5067032;28;19905;-78
2021/07/14 10:29:03;;;;;;;;;;;19.00;99.90;;;;;;5050756;28;19909;-78
2021/07/14 10:31:29;;;;;;;;;;;19.00;99.90;;;;;;5047774;28;19916;-77
2021/07/14 10:33:55;;;;;;;;;;;19.10;99.90;;;;;;5057311;28;19898;-79
2021/07/14 10:36:28;;;;;;;;;;;19.20;99.90;;;;;;5057664;28;19973;-80
2021/07/14 10:38:57;;;;;;;;;;;19.20;99.90;;;;;;5054308;28;19901;-76
2021/07/14 10:41:22;;;;;;;;;;;19.30;99.90;;;;;;5060315;28;19913;-79
2021/07/14 10:43:50;;;;;;;;;;;19.40;99.90;;;;;;5047653;28;19977;-77
2021/07/14 10:46:17;;;;;;;;;;;19.40;99.90;;;;;;5057561;28;19912;-78
2021/07/14 10:48:42;;;;;;;;;;;19.40;99.90;;;;;;5056170;28;19904;-78
2021/07/14 10:51:08;;;;;;;;;;;19.30;99.90;;;;;;5058480;28;19924;-77
2021/07/14 10:53:34;;;;;;;;;;;19.30;99.90;;;;;;5058080;28;19943;-77
2021/07/14 10:56:00;;;;;;;;;;;19.30;99.90;;;;;;5058902;28;19920;-78
2021/07/14 10:58:28;;;;;;;;;;;19.30;99.90;;;;;;5051581;28;19917;-78
2021/07/14 11:00:54;;;;;;;;;;;19.30;99.90;;;;;;5055916;28;19904;-77
2021/07/14 11:03:41;;;;;;;;;;;19.30;99.90;;;;;;5058740;28;19921;-78
2021/07/14 11:06:07;;;;;;;;;;;19.30;99.90;;;;;;5035459;28;19931;-76
2021/07/14 11:08:39;;;;;;;;;;;19.30;99.90;;;;;;5042112;28;20432;-77
2021/07/14 11:11:04;;;;;;;;;;;19.30;99.90;;;;;;5039027;28;19955;-77
2021/07/14 11:13:30;;;;;;;;;;;19.20;99.90;;;;;;5037369;28;20274;-77
2021/07/14 11:15:56;;;;;;;;;;;19.30;99.90;;;;;;5036787;28;19916;-77
2021/07/14 11:18:28;;;;;;;;;;;19.40;99.90;;;;;;5036832;28;19949;-79
2021/07/14 11:20:54;;;;;;;;;;;19.50;99.90;;;;;;5037066;28;19909;-77
2021/07/14 11:23:20;;;;;;;;;;;19.50;99.90;;;;;;5036183;28;19916;-78
2021/07/14 11:25:47;;;;;;;;;;;19.40;99.90;;;;;;5046964;28;20358;-78
2021/07/14 11:28:13;;;;;;;;;;;19.40;99.90;;;;;;5034469;28;19932;-78
2021/07/14 11:30:40;;;;;;;;;;;19.50;99.90;;;;;;5036918;28;19909;-78
2021/07/14 11:33:06;;;;;;;;;;;19.70;99.90;;;;;;5034677;28;19917;-77
2021/07/14 11:35:54;;;;;;;;;;;19.80;99.90;;;;;;5034791;28;20000;-78
2021/07/14 11:38:22;;;;;;;;;;;19.80;99.90;;;;;;5035786;28;19944;-77
2021/07/14 11:40:48;;;;;;;;;;;19.90;99.90;;;;;;5024866;28;19910;-78
2021/07/14 11:43:16;;;;;;;;;;;19.80;99.90;;;;;;5032218;28;20381;-76
2021/07/14 11:45:43;;;;;;;;;;;19.80;99.90;;;;;;5032857;28;20274;-78
2021/07/14 11:48:08;;;;;;;;;;;19.90;99.90;;;;;;5048379;28;20004;-77
2021/07/14 11:50:43;;;;;;;;;;;19.80;99.90;;;;;;5031509;28;19944;-77
2021/07/14 11:53:31;;;;;;;;;;;19.80;99.90;;;;;;5015123;28;20008;-77
2021/07/14 11:56:17;;;;;;;;;;;19.80;99.90;;;;;;5022112;28;19910;-78
2021/07/14 11:58:42;;;;;;;;;;;19.80;99.90;;;;;;5032531;28;19909;-77
2021/07/14 12:01:17;;;;;;;;;;;19.90;99.90;;;;;;5032815;28;19996;-78
2021/07/14 12:04:04;;;;;;;;;;;20.10;99.90;;;;;;5017954;28;19937;-77
2021/07/14 12:06:45;;;;;;;;;;;20.20;99.90;;;;;;5027886;28;20382;-77
2021/07/14 12:09:13;;;;;;;;;;;20.30;99.90;;;;;;5031773;28;19909;-78
2021/07/14 12:11:52;;;;;;;;;;;20.40;99.90;;;;;;5029612;28;20284;-77
2021/07/14 12:14:26;;;;;;;;;;;20.50;99.90;;;;;;5031315;28;19909;-78
2021/07/14 12:16:54;;;;;;;;;;;20.60;99.90;;;;;;5031881;28;20344;-77
2021/07/14 12:19:20;;;;;;;;;;;20.70;99.90;;;;;;5035079;28;19909;-77
2021/07/14 12:21:46;;;;;;;;;;;20.60;99.90;;;;;;5033802;28;19970;-79
2021/07/14 12:24:31;;;;;;;;;;;20.50;99.90;;;;;;5035092;28;19913;-74
2021/07/14 12:26:57;;;;;;;;;;;20.40;99.90;;;;;;5034922;28;19917;-82
2021/07/14 12:29:23;;;;;;;;;;;20.40;99.90;;;;;;5034763;28;19979;-81
2021/07/14 12:31:49;;;;;;;;;;;20.30;99.90;;;;;;5036885;28;19909;-86
2021/07/14 12:34:27;;;;;;;;;;;20.40;99.90;;;;;;5034791;28;20354;-86
2021/07/14 12:36:56;;;;;;;;;;;20.50;99.90;;;;;;5048642;28;19916;-89
2021/07/14 12:39:31;;;;;;;;;;;20.60;99.90;;;;;;5036234;28;19932;-80
2021/07/14 12:41:58;;;;;;;;;;;20.70;99.90;;;;;;5031749;28;19913;-77
2021/07/14 12:44:23;;;;;;;;;;;20.90;99.90;;;;;;5031733;28;19909;-78
2021/07/14 12:46:49;;;;;;;;;;;21.00;99.90;;;;;;5037077;28;19913;-79
2021/07/14 12:49:16;;;;;;;;;;;21.30;99.90;;;;;;5037178;28;19909;-78
2021/07/14 12:52:00;;;;;;;;;;;21.30;99.90;;;;;;5029501;28;19915;-79
2021/07/14 12:54:25;;;;;;;;;;;21.40;99.90;;;;;;5035812;28;19951;-77
2021/07/14 12:56:51;;;;;;;;;;;21.30;99.90;;;;;;5037759;28;19952;-79
2021/07/14 12:59:16;;;;;;;;;;;21.20;99.90;;;;;;5039244;28;19916;-79
2021/07/14 13:01:45;;;;;;;;;;;21.10;99.90;;;;;;5034206;28;19909;-78
2021/07/14 13:04:14;;;;;;;;;;;21.00;99.90;;;;;;5045914;28;19920;-79
2021/07/14 13:06:40;;;;;;;;;;;21.00;99.90;;;;;;5047221;28;19916;-80
2021/07/14 13:09:06;;;;;;;;;;;21.20;99.90;;;;;;5035732;28;19909;-79
2021/07/14 13:11:32;;;;;;;;;;;21.20;99.90;;;;;;5033489;28;19988;-79
2021/07/14 13:13:58;;;;;;;;;;;21.10;99.90;;;;;;5033035;28;19955;-80
2021/07/14 13:16:24;;;;;;;;;;;21.20;99.90;;;;;;5036855;28;19959;-79
2021/07/14 13:18:52;;;;;;;;;;;21.20;99.90;;;;;;5034407;28;19913;-79
2021/07/14 13:21:22;;;;;;;;;;;21.10;99.90;;;;;;5033108;28;19913;-79
2021/07/14 13:23:48;;;;;;;;;;;21.00;99.90;;;;;;5033542;28;20000;-80
2021/07/14 13:26:20;;;;;;;;;;;21.00;99.90;;;;;;5030630;28;20346;-80
2021/07/14 13:28:47;;;;;;;;;;;21.10;99.90;;;;;;5032154;28;19909;-79
2021/07/14 13:31:20;;;;;;;;;;;21.10;99.90;;;;;;5034914;28;19909;-79
2021/07/14 13:33:46;;;;;;;;;;;21.30;99.90;;;;;;5049465;28;19909;-79
2021/07/14 13:36:17;;;;;;;;;;;21.40;99.90;;;;;;5033408;28;19931;-79
2021/07/14 13:38:44;;;;;;;;;;;21.30;99.90;;;;;;5049494;28;19908;-78
2021/07/14 13:41:10;;;;;;;;;;;21.30;99.90;;;;;;5047293;28;19909;-79
2021/07/14 13:43:37;;;;;;;;;;;21.20;99.90;;;;;;5042915;28;19915;-79
2021/07/14 13:46:02;;;;;;;;;;;21.20;99.90;;;;;;5042534;28;20018;-79
2021/07/14 13:48:28;;;;;;;;;;;21.20;99.90;;;;;;5034419;28;20404;-77
2021/07/14 13:50:54;;;;;;;;;;;21.20;99.90;;;;;;5039710;28;19941;-79
2021/07/14 13:53:27;;;;;;;;;;;21.30;99.90;;;;;;5045284;28;19908;-77
2021/07/14 13:56:05;;;;;;;;;;;21.40;99.90;;;;;;5029071;28;19913;-79
2021/07/14 13:58:31;;;;;;;;;;;21.40;99.90;;;;;;5031452;28;20405;-79
2021/07/14 14:00:57;;;;;;;;;;;21.40;99.90;;;;;;5034507;28;19921;-82
2021/07/14 14:03:23;;;;;;;;;;;21.40;99.90;;;;;;5034845;28;19909;-79
2021/07/14 14:06:01;;;;;;;;;;;21.30;99.90;;;;;;5046051;28;19920;-79
2021/07/14 14:08:27;;;;;;;;;;;21.10;99.90;;;;;;5036655;28;19982;-79
2021/07/14 14:10:54;;;;;;;;;;;21.10;99.90;;;;;;5042119;28;19913;-80
2021/07/14 14:13:29;;;;;;;;;;;21.10;99.90;;;;;;5033166;28;19917;-78
2021/07/14 14:15:55;;;;;;;;;;;20.90;99.90;;;;;;5029889;28;20277;-79
2021/07/14 14:18:21;;;;;;;;;;;20.70;99.90;;;;;;5034129;28;19913;-79
2021/07/14 14:20:46;;;;;;;;;;;20.60;99.90;;;;;;5035095;28;20321;-79
2021/07/14 14:23:12;;;;;;;;;;;20.60;99.90;;;;;;5030412;28;20000;-79
2021/07/14 14:25:40;;;;;;;;;;;20.70;99.90;;;;;;5029496;28;20356;-79